Time;durP1;ratioP1;P1;durP2;ratioP2;P2;SDS_P1;SDS_P2;PMS_P1;PMS_P2;Temp;Humidity;BMP_temperature;BMP_pressure;BME280_temperature;BME280_humidity;BME280_pressure;Samples;Min_cycle;Max_cycle;Signal;HPM_P1;HPM_P2
2023/07/17 00:01:34;;;;;;;6.57;2.20;;;14.20;99.90;;;13.62;100.00;101519.22;3985778;29;20039;-76
2023/07/17 00:03:35;;;;;;;5.72;1.20;;;14.20;99.90;;;13.58;100.00;101520.50;3978905;29;20047;-76
2023/07/17 00:05:36;;;;;;;4.68;1.15;;;14.20;99.90;;;13.59;100.00;101519.53;3995684;29;20030;-76
2023/07/17 00:07:41;;;;;;;5.05;1.40;;;14.10;99.90;;;13.58;100.00;101515.19;3987517;29;20519;-76
2023/07/17 00:09:43;;;;;;;3.70;1.13;;;14.10;99.90;;;13.56;100.00;101518.00;3989620;29;20046;-76
2023/07/17 00:11:44;;;;;;;4.68;1.70;;;14.10;99.90;;;13.53;100.00;101517.50;3991287;29;20098;-76
2023/07/17 00:13:45;;;;;;;8.57;1.58;;;14.10;99.90;;;13.59;100.00;101520.34;3979326;29;20096;-76
2023/07/17 00:15:45;;;;;;;5.40;1.55;;;14.10;99.90;;;13.57;100.00;101519.66;3991893;29;20084;-76
2023/07/17 00:17:47;;;;;;;10.40;1.67;;;14.10;99.90;;;13.56;100.00;101517.19;3981507;29;20038;-76
2023/07/17 00:19:56;;;;;;;6.45;1.15;;;14.10;99.90;;;13.55;100.00;101512.88;3982297;29;20114;-76
2023/07/17 00:21:56;;;;;;;6.93;1.85;;;14.10;99.90;;;13.50;100.00;101515.16;3998427;29;20066;-76
2023/07/17 00:23:57;;;;;;;8.40;2.05;;;14.10;99.90;;;13.50;100.00;101512.50;3982365;29;20035;-76
2023/07/17 00:25:58;;;;;;;4.90;1.63;;;14.00;99.90;;;13.46;100.00;101513.78;3998110;29;20406;-76
2023/07/17 00:27:59;;;;;;;3.20;0.95;;;14.00;99.90;;;13.42;100.00;101509.78;3966945;30;20081;-76
2023/07/17 00:30:00;;;;;;;4.15;1.45;;;14.00;99.90;;;13.40;100.00;101520.56;3989724;29;20031;-76
2023/07/17 00:32:01;;;;;;;3.20;0.90;;;14.00;99.90;;;13.37;100.00;101520.88;3981634;29;20034;-76
2023/07/17 00:34:02;;;;;;;6.20;1.33;;;13.90;99.90;;;13.34;100.00;101512.38;3998333;29;20395;-76
2023/07/17 00:36:03;;;;;;;3.58;1.15;;;13.90;99.90;;;13.35;100.00;101514.06;3998109;29;20030;-76
2023/07/17 00:38:04;;;;;;;6.93;1.38;;;13.90;99.90;;;13.32;100.00;101513.38;3998201;29;20179;-76
2023/07/17 00:40:08;;;;;;;5.35;1.65;;;13.90;99.90;;;13.35;100.00;101516.72;3998195;29;20398;-77
2023/07/17 00:42:08;;;;;;;8.20;1.65;;;13.90;99.90;;;13.32;100.00;101502.75;3967117;29;20035;-77
2023/07/17 00:44:10;;;;;;;6.18;1.60;;;13.90;99.90;;;13.32;100.00;101516.00;3996173;29;20041;-76
2023/07/17 00:46:11;;;;;;;3.08;1.27;;;13.90;99.90;;;13.35;100.00;101508.75;3993795;29;20054;-76
2023/07/17 00:48:12;;;;;;;5.25;1.75;;;13.90;99.90;;;13.32;100.00;101510.72;3996155;29;20121;-76
2023/07/17 00:50:13;;;;;;;5.10;1.20;;;13.90;99.90;;;13.32;100.00;101513.38;3996935;29;20097;-76
2023/07/17 00:52:15;;;;;;;7.10;1.38;;;13.90;99.90;;;13.26;100.00;101507.88;3996944;29;20042;-76
2023/07/17 00:54:18;;;;;;;5.80;1.25;;;13.90;99.90;;;13.26;100.00;101510.53;3981945;29;20023;-76
2023/07/17 00:56:19;;;;;;;5.45;1.30;;;13.80;99.90;;;13.18;100.00;101513.09;3995401;29;20499;-76
2023/07/17 00:58:20;;;;;;;6.47;2.08;;;13.80;99.90;;;13.18;100.00;101515.75;3981818;29;20045;-77
2023/07/17 01:00:23;;;;;;;8.52;1.88;;;13.80;99.90;;;13.14;100.00;101511.75;3981328;29;20198;-76
2023/07/17 01:02:24;;;;;;;7.50;1.95;;;13.70;99.90;;;13.12;100.00;101525.13;3981684;29;20034;-76
2023/07/17 01:04:25;;;;;;;4.68;1.63;;;13.70;99.90;;;13.08;100.00;101522.97;3981689;29;20037;-76
2023/07/17 01:06:30;;;;;;;4.80;1.30;;;13.70;99.90;;;13.07;100.00;101526.56;3979215;29;20046;-76
2023/07/17 01:08:32;;;;;;;4.57;1.50;;;13.70;99.90;;;13.03;100.00;101527.84;3991542;29;20034;-76
2023/07/17 01:10:32;;;;;;;4.68;1.02;;;13.60;99.90;;;13.01;100.00;101532.47;3994134;29;20111;-76
2023/07/17 01:12:37;;;;;;;5.10;1.77;;;13.60;99.90;;;12.88;100.00;101508.16;3995366;29;20483;-76
2023/07/17 01:14:38;;;;;;;6.22;2.05;;;13.60;99.90;;;12.97;100.00;101531.09;3997573;29;20038;-76
2023/07/17 01:16:39;;;;;;;4.82;1.30;;;13.50;99.90;;;12.94;100.00;101526.09;3978698;29;20495;-76
2023/07/17 01:18:41;;;;;;;5.05;1.63;;;13.50;99.90;;;12.97;100.00;101536.38;3997551;29;20108;-76
2023/07/17 01:20:42;;;;;;;7.20;1.83;;;13.50;99.90;;;12.95;100.00;101528.63;3997482;29;20045;-76
2023/07/17 01:23:00;;;;;;;4.82;1.80;;;13.50;99.90;;;12.96;100.00;101524.97;3981247;29;20104;-76
2023/07/17 01:25:01;;;;;;;5.10;1.45;;;13.50;99.90;;;12.97;100.00;101528.44;3981382;29;20037;-76
2023/07/17 01:27:04;;;;;;;4.05;1.33;;;13.50;99.90;;;12.94;100.00;101524.28;3997498;29;20034;-76
2023/07/17 01:29:05;;;;;;;4.72;1.20;;;13.50;99.90;;;12.90;100.00;101536.19;3997192;29;20034;-76
2023/07/17 01:31:07;;;;;;;3.95;1.08;;;13.50;99.90;;;12.91;100.00;101531.69;3980977;29;20038;-76
2023/07/17 01:33:08;;;;;;;2.38;1.10;;;13.50;99.90;;;12.91;100.00;101537.00;3981535;29;20031;-76
2023/07/17 01:35:09;;;;;;;4.00;1.17;;;13.50;99.90;;;12.92;100.00;101533.38;3997528;29;20054;-76
2023/07/17 01:37:10;;;;;;;3.05;1.25;;;13.40;99.90;;;12.92;100.00;101528.06;3993541;29;20038;-76
2023/07/17 01:39:11;;;;;;;7.93;2.45;;;13.40;99.90;;;12.93;100.00;101529.75;3995681;29;20037;-76
2023/07/17 01:41:12;;;;;;;6.55;1.48;;;13.40;99.90;;;12.93;100.00;101527.91;3994520;29;20045;-76
2023/07/17 01:43:13;;;;;;;6.25;1.38;;;13.50;99.90;;;12.88;100.00;101526.72;3997227;29;20030;-76
2023/07/17 01:45:14;;;;;;;4.15;2.00;;;13.40;99.90;;;12.78;100.00;101526.81;3997347;29;20083;-76
2023/07/17 01:47:14;;;;;;;4.18;1.73;;;13.40;99.90;;;12.72;100.00;101525.56;3996780;29;20101;-76
2023/07/17 01:49:15;;;;;;;5.25;1.27;;;13.30;99.90;;;12.67;100.00;101527.84;3966055;30;20524;-76
2023/07/17 01:51:16;;;;;;;4.47;1.50;;;13.30;99.90;;;12.62;100.00;101530.13;3997180;29;20023;-77
2023/07/17 01:53:21;;;;;;;3.80;1.27;;;13.20;99.90;;;12.57;100.00;101523.63;3980946;29;20031;-76
2023/07/17 01:55:22;;;;;;;4.00;1.10;;;13.20;99.90;;;12.58;100.00;101522.59;3980829;29;20110;-76
2023/07/17 01:57:23;;;;;;;4.38;1.30;;;13.10;99.90;;;12.57;100.00;101526.25;3981021;29;20039;-76
2023/07/17 01:59:23;;;;;;;6.53;1.83;;;13.20;99.90;;;12.58;100.00;101522.59;3996002;29;20030;-77
2023/07/17 02:01:24;;;;;;;3.40;1.40;;;13.20;99.90;;;12.60;100.00;101529.41;3980672;29;20038;-77
2023/07/17 02:03:25;;;;;;;4.85;1.60;;;13.10;99.90;;;12.60;100.00;101525.97;3996870;29;20038;-76
2023/07/17 02:05:26;;;;;;;4.95;1.52;;;13.10;99.90;;;12.59;100.00;101526.94;3991715;29;20068;-76
2023/07/17 02:07:27;;;;;;;3.60;1.25;;;13.20;99.90;;;12.62;100.00;101534.56;3975634;29;20027;-76
2023/07/17 02:09:28;;;;;;;3.53;1.10;;;13.20;99.90;;;12.51;100.00;101522.41;3996904;29;20046;-76
2023/07/17 02:11:30;;;;;;;4.93;1.90;;;13.10;99.90;;;12.50;100.00;101531.31;3995638;29;20026;-76
2023/07/17 02:13:31;;;;;;;4.18;1.27;;;13.10;99.90;;;12.47;100.00;101528.97;3995937;29;20030;-76
2023/07/17 02:15:32;;;;;;;5.38;2.10;;;13.00;99.90;;;12.43;100.00;101529.41;3994263;29;20035;-76
2023/07/17 02:17:33;;;;;;;4.47;1.45;;;13.10;99.90;;;12.43;100.00;101529.41;3973130;29;20503;-76
2023/07/17 02:19:33;;;;;;;3.45;1.42;;;13.00;99.90;;;12.37;100.00;101532.63;3978056;29;20031;-76
2023/07/17 02:21:34;;;;;;;3.97;1.10;;;13.00;99.90;;;12.37;100.00;101533.47;3980340;29;20035;-76
2023/07/17 02:23:35;;;;;;;6.22;1.23;;;12.90;99.90;;;12.35;100.00;101531.97;3995412;29;20034;-76
2023/07/17 02:25:36;;;;;;;2.72;1.20;;;12.90;99.90;;;12.30;100.00;101535.06;3980355;29;20131;-76
2023/07/17 02:27:37;;;;;;;3.10;1.00;;;12.90;99.90;;;12.19;100.00;101522.84;3995630;29;20128;-76
2023/07/17 02:29:37;;;;;;;4.65;1.05;;;12.90;99.90;;;12.19;100.00;101527.31;3994469;29;20023;-76
2023/07/17 02:31:39;;;;;;;4.60;1.33;;;12.80;99.90;;;12.14;100.00;101527.75;3980099;29;20022;-76
2023/07/17 02:33:40;;;;;;;5.25;1.42;;;12.80;99.90;;;12.11;100.00;101532.50;3996686;29;20030;-76
2023/07/17 02:35:41;;;;;;;4.35;1.52;;;12.70;99.90;;;12.07;100.00;101531.97;3996668;29;20034;-76
2023/07/17 02:37:42;;;;;;;5.45;1.50;;;12.70;99.90;;;11.99;100.00;101526.56;3996372;29;20034;-76
2023/07/17 02:39:42;;;;;;;6.05;1.55;;;12.60;99.90;;;12.01;100.00;101535.19;3992283;29;20033;-76
2023/07/17 02:41:44;;;;;;;2.90;1.35;;;12.60;99.90;;;11.97;100.00;101528.53;3996085;29;20628;-76
2023/07/17 02:43:45;;;;;;;5.35;1.23;;;12.60;99.90;;;11.92;100.00;101530.78;3996507;29;20424;-76
2023/07/17 02:45:45;;;;;;;5.90;1.13;;;12.60;99.90;;;11.94;100.00;101535.94;3980191;29;20070;-76
2023/07/17 02:47:46;;;;;;;3.15;1.10;;;12.50;99.90;;;11.89;100.00;101531.06;3993646;29;20398;-76
2023/07/17 02:49:47;;;;;;;6.55;1.25;;;12.50;99.90;;;11.88;100.00;101524.13;3973754;29;20035;-76
2023/07/17 02:51:48;;;;;;;4.40;1.60;;;12.50;99.90;;;11.85;100.00;101527.06;3991821;29;20023;-76
2023/07/17 02:53:49;;;;;;;4.78;1.27;;;12.50;99.90;;;11.90;100.00;101523.97;3976017;29;20747;-76
2023/07/17 02:55:50;;;;;;;3.63;1.52;;;12.50;99.90;;;11.90;100.00;101522.16;3990096;29;20027;-76
2023/07/17 02:57:51;;;;;;;3.63;1.25;;;12.50;99.90;;;11.89;100.00;101532.88;3989236;29;20026;-76
2023/07/17 02:59:54;;;;;;;4.35;1.42;;;12.50;99.90;;;11.84;100.00;101535.97;3972372;29;20035;-76
2023/07/17 03:01:55;;;;;;;6.18;1.45;;;12.40;99.90;;;11.79;100.00;101540.84;3988396;29;20034;-77
2023/07/17 03:03:56;;;;;;;5.95;1.30;;;12.40;99.90;;;11.72;100.00;101533.63;3992151;29;20030;-76
2023/07/17 03:05:57;;;;;;;3.00;1.30;;;12.40;99.90;;;11.75;100.00;101542.13;3973599;29;20203;-76
2023/07/17 03:07:57;;;;;;;2.08;0.90;;;12.40;99.90;;;11.71;100.00;101534.63;3990707;29;20395;-76
2023/07/17 03:09:58;;;;;;;4.28;1.70;;;12.30;99.90;;;11.73;100.00;101544.06;3975485;29;20034;-76
2023/07/17 03:11:59;;;;;;;3.88;1.40;;;12.30;99.90;;;11.71;100.00;101543.38;3989904;29;20022;-76
2023/07/17 03:14:00;;;;;;;2.75;1.60;;;12.30;99.90;;;11.69;100.00;101547.94;3987983;29;20030;-76
2023/07/17 03:16:01;;;;;;;4.32;1.40;;;12.30;99.90;;;11.63;100.00;101543.22;3990067;29;20398;-76
2023/07/17 03:18:02;;;;;;;3.90;1.35;;;12.30;99.90;;;11.62;100.00;101541.53;3971078;29;20117;-76
2023/07/17 03:20:06;;;;;;;2.53;1.30;;;12.30;99.90;;;11.60;100.00;101531.13;3991957;29;20026;-76
2023/07/17 03:22:06;;;;;;;3.03;1.55;;;12.20;99.90;;;11.59;100.00;101547.13;3975530;29;20051;-76
2023/07/17 03:24:07;;;;;;;2.78;1.38;;;12.20;99.90;;;11.56;100.00;101537.66;3989272;29;20084;-76
2023/07/17 03:26:08;;;;;;;4.63;1.27;;;12.20;99.90;;;11.56;100.00;101542.97;3990893;29;20049;-76
2023/07/17 03:28:10;;;;;;;4.57;1.45;;;12.20;99.90;;;11.52;100.00;101535.47;3989445;29;20022;-76
2023/07/17 03:30:11;;;;;;;3.00;1.27;;;12.10;99.90;;;11.52;100.00;101532.84;3960533;30;20073;-76
2023/07/17 03:32:12;;;;;;;4.25;1.27;;;12.20;99.90;;;11.48;100.00;101529.63;3992578;29;20095;-76
2023/07/17 03:34:13;;;;;;;4.05;1.75;;;12.10;99.90;;;11.53;100.00;101537.13;3958282;30;20028;-76
2023/07/17 03:36:14;;;;;;;5.15;1.70;;;12.10;99.90;;;11.52;100.00;101528.38;3991739;29;20026;-76
2023/07/17 03:38:15;;;;;;;4.88;1.50;;;12.10;99.90;;;11.50;100.00;101532.13;3991774;29;20510;-76
2023/07/17 03:40:16;;;;;;;4.40;1.55;;;12.10;99.90;;;11.53;100.00;101532.66;3973508;29;20427;-76
2023/07/17 03:42:17;;;;;;;3.67;1.70;;;12.10;99.90;;;11.48;100.00;101528.78;3986100;29;20066;-76
2023/07/17 03:44:17;;;;;;;4.35;1.05;;;12.10;99.90;;;11.43;100.00;101525.75;3985593;29;20038;-76
2023/07/17 03:46:19;;;;;;;5.63;1.83;;;12.10;99.90;;;11.44;100.00;101535.38;3958184;30;20050;-76
2023/07/17 03:48:19;;;;;;;4.88;1.50;;;12.10;99.90;;;11.41;100.00;101533.81;3991615;29;20452;-76
2023/07/17 03:50:20;;;;;;;3.15;1.30;;;12.00;99.90;;;11.40;100.00;101532.16;3988635;29;20034;-76
2023/07/17 03:52:21;;;;;;;2.90;1.40;;;12.00;99.90;;;11.40;100.00;101541.91;3971907;29;20039;-76
2023/07/17 03:54:22;;;;;;;3.00;0.95;;;12.00;99.90;;;11.37;100.00;101537.72;3986087;29;20063;-76
2023/07/17 03:56:23;;;;;;;4.63;1.67;;;12.00;99.90;;;11.37;100.00;101547.47;3972230;29;20034;-76
2023/07/17 03:58:24;;;;;;;4.10;1.27;;;12.00;99.90;;;11.33;100.00;101540.78;3984405;29;20468;-77
2023/07/17 04:00:25;;;;;;;6.85;1.50;;;12.00;99.90;;;11.32;100.00;101547.88;3974449;29;20419;-76
2023/07/17 04:02:26;;;;;;;3.03;1.45;;;11.90;99.90;;;11.27;100.00;101543.97;3987031;29;20491;-76
2023/07/17 04:04:27;;;;;;;4.43;1.30;;;11.90;99.90;;;11.23;100.00;101543.44;3971935;29;20023;-76
2023/07/17 04:06:28;;;;;;;5.00;1.15;;;11.90;99.90;;;11.21;100.00;101542.75;3971260;29;20039;-77
2023/07/17 04:08:28;;;;;;;3.90;1.75;;;11.80;99.90;;;11.23;100.00;101550.53;3991403;29;20058;-76
2023/07/17 04:10:29;;;;;;;5.13;1.80;;;11.90;99.90;;;11.19;100.00;101543.88;3989775;29;20039;-76
2023/07/17 04:12:31;;;;;;;4.28;1.63;;;11.80;99.90;;;11.17;100.00;101549.25;3974746;29;20495;-76
2023/07/17 04:14:36;;;;;;;4.15;1.15;;;11.80;99.90;;;11.15;100.00;101548.59;3972018;29;20035;-76
2023/07/17 04:16:37;;;;;;;3.00;1.13;;;11.80;99.90;;;11.13;100.00;101544.41;3974549;29;20105;-76
2023/07/17 04:18:37;;;;;;;7.72;1.38;;;11.80;99.90;;;11.17;100.00;101559.03;3991442;29;20027;-76
2023/07/17 04:20:40;;;;;;;2.53;1.00;;;11.80;99.90;;;11.18;100.00;101558.88;3991038;29;20030;-76
2023/07/17 04:22:40;;;;;;;4.25;1.33;;;11.80;99.90;;;11.19;100.00;101560.53;3984992;29;20057;-76
2023/07/17 04:24:41;;;;;;;5.20;1.33;;;11.80;99.90;;;11.21;100.00;101560.38;3974288;29;20465;-76
2023/07/17 04:26:42;;;;;;;7.03;1.27;;;11.80;99.90;;;11.20;100.00;101558.75;3974982;29;20062;-77
2023/07/17 04:28:44;;;;;;;4.85;2.22;;;11.80;99.90;;;11.21;100.00;101557.75;3970980;29;20428;-77
2023/07/17 04:30:44;;;;;;;5.80;2.72;;;11.80;99.90;;;11.30;100.00;101568.31;3989453;29;20038;-76
2023/07/17 04:32:45;;;;;;;7.05;1.50;;;11.80;99.90;;;11.29;100.00;101566.63;3969972;29;20032;-76
2023/07/17 04:34:46;;;;;;;2.78;1.23;;;11.90;99.90;;;11.28;100.00;101570.28;3984644;29;20446;-76
2023/07/17 04:36:47;;;;;;;3.72;1.15;;;11.90;99.90;;;11.30;100.00;101572.75;3991342;29;20083;-76
2023/07/17 04:38:49;;;;;;;6.57;1.55;;;11.90;99.90;;;11.29;100.00;101576.41;3988003;29;20034;-76
2023/07/17 04:40:50;;;;;;;4.20;1.67;;;11.90;99.90;;;11.30;100.00;101575.41;3990405;29;20033;-77
2023/07/17 04:42:51;;;;;;;5.32;1.70;;;11.90;99.90;;;11.28;100.00;101577.34;3976292;29;20023;-76
2023/07/17 04:44:52;;;;;;;4.80;1.55;;;11.90;99.90;;;11.27;100.00;101573.88;3987137;29;20031;-76
2023/07/17 04:46:52;;;;;;;5.07;1.90;;;11.90;99.90;;;11.27;100.00;101583.59;3985607;29;20039;-76
2023/07/17 04:48:53;;;;;;;6.78;1.45;;;11.90;99.90;;;11.27;100.00;101575.69;3989094;29;20042;-76
2023/07/17 04:50:54;;;;;;;4.22;1.45;;;11.90;99.90;;;11.23;100.00;101582.22;3988980;29;20073;-76
2023/07/17 04:52:55;;;;;;;4.03;1.30;;;11.90;99.90;;;11.24;100.00;101589.16;3977095;29;20079;-76
2023/07/17 04:54:57;;;;;;;4.28;1.40;;;11.80;99.90;;;11.25;100.00;101591.69;3988195;29;20080;-76
2023/07/17 04:56:58;;;;;;;3.60;1.77;;;11.90;99.90;;;11.23;100.00;101580.41;3990186;29;20518;-76
2023/07/17 04:58:59;;;;;;;6.03;2.30;;;11.90;99.90;;;11.34;100.00;101590.00;3978797;29;20035;-77
2023/07/17 05:01:01;;;;;;;4.35;1.52;;;11.90;99.90;;;11.36;100.00;101588.88;3988021;29;20034;-76
2023/07/17 05:03:03;;;;;;;7.55;1.50;;;11.90;99.90;;;11.42;100.00;101593.59;3976871;29;20043;-76
2023/07/17 05:05:05;;;;;;;7.15;1.73;;;12.00;99.90;;;11.43;100.00;101581.25;3989173;29;20060;-76
2023/07/17 05:07:05;;;;;;;3.70;1.30;;;12.00;99.90;;;11.51;100.00;101595.41;3988828;29;20022;-76
2023/07/17 05:09:06;;;;;;;6.22;2.47;;;12.10;99.90;;;11.54;100.00;101594.28;3991881;29;20037;-76
2023/07/17 05:11:07;;;;;;;6.63;1.50;;;12.10;99.90;;;11.55;100.00;101588.03;3976454;29;20082;-76
2023/07/17 05:13:08;;;;;;;5.13;1.55;;;12.10;99.90;;;11.56;100.00;101590.53;3989039;29;20029;-76
2023/07/17 05:15:10;;;;;;;3.55;1.42;;;12.20;99.90;;;11.57;100.00;101586.06;3990275;29;20037;-76
2023/07/17 05:17:11;;;;;;;4.88;1.42;;;12.20;99.90;;;11.69;100.00;101600.78;3993013;29;20030;-76
2023/07/17 05:19:12;;;;;;;2.40;1.30;;;12.20;99.90;;;11.75;100.00;101594.97;3992800;29;20487;-76
2023/07/17 05:21:13;;;;;;;4.10;1.58;;;12.30;99.90;;;11.75;100.00;101591.50;3994384;29;20038;-76
2023/07/17 05:23:14;;;;;;;7.22;1.60;;;12.30;99.90;;;11.81;100.00;101597.03;3988244;29;20503;-76
2023/07/17 05:25:15;;;;;;;3.40;1.50;;;12.40;99.90;;;11.88;100.00;101603.44;3975904;29;20051;-76
2023/07/17 05:27:16;;;;;;;4.85;1.48;;;12.50;99.90;;;11.95;100.00;101598.38;3976327;29;20468;-77
2023/07/17 05:29:17;;;;;;;3.58;1.17;;;12.50;99.90;;;12.01;100.00;101603.94;3990488;29;20031;-76
2023/07/17 05:31:18;;;;;;;4.03;1.58;;;12.60;99.90;;;12.07;100.00;101598.06;3978192;29;20030;-77
2023/07/17 05:33:20;;;;;;;4.38;1.65;;;12.60;99.90;;;12.16;100.00;101604.31;3992844;29;20045;-76
2023/07/17 05:35:21;;;;;;;3.78;1.50;;;12.70;99.90;;;12.21;100.00;101604.72;3990164;29;20130;-76
2023/07/17 05:37:21;;;;;;;3.47;1.33;;;12.70;99.90;;;12.29;100.00;101604.81;3992534;29;20519;-76
2023/07/17 05:39:22;;;;;;;3.05;1.65;;;12.80;99.90;;;12.40;100.00;101611.72;3986411;29;20111;-76
2023/07/17 05:41:23;;;;;;;4.78;1.60;;;12.90;99.90;;;12.47;100.00;101602.22;3990822;29;20030;-76
2023/07/17 05:43:24;;;;;;;3.17;2.08;;;13.00;99.90;;;12.55;100.00;101602.31;3991321;29;20035;-76
2023/07/17 05:45:25;;;;;;;5.88;1.50;;;13.10;99.90;;;12.62;100.00;101608.69;3990064;29;20042;-76
2023/07/17 05:47:26;;;;;;;3.97;1.60;;;13.10;99.90;;;12.64;100.00;101609.38;3978469;29;20050;-76
2023/07/17 05:49:28;;;;;;;3.70;1.80;;;13.20;99.90;;;12.70;100.00;101609.59;3990881;29;20023;-76
2023/07/17 05:51:29;;;;;;;3.47;1.40;;;13.20;99.90;;;12.77;100.00;101615.16;3973708;29;20026;-76
2023/07/17 05:53:30;;;;;;;4.53;1.88;;;13.30;99.90;;;12.83;100.00;101617.19;3988663;29;20026;-76
2023/07/17 05:55:31;;;;;;;3.88;1.60;;;13.40;99.90;;;12.94;100.00;101616.97;3991614;29;20033;-76
2023/07/17 05:57:32;;;;;;;6.70;2.22;;;13.50;99.90;;;13.01;100.00;101618.06;3988094;29;20027;-76
2023/07/17 05:59:33;;;;;;;7.70;1.95;;;13.50;99.90;;;13.09;100.00;101625.25;3974677;29;20034;-76
2023/07/17 06:01:34;;;;;;;3.83;1.70;;;13.60;99.90;;;13.13;100.00;101627.47;3972366;29;20038;-76
2023/07/17 06:03:35;;;;;;;4.70;1.63;;;13.60;99.90;;;13.16;100.00;101627.19;3976677;29;20035;-76
2023/07/17 06:05:40;;;;;;;6.35;2.22;;;13.70;99.90;;;13.20;100.00;101625.88;3976758;29;20026;-76
2023/07/17 06:07:41;;;;;;;5.35;1.80;;;13.70;99.90;;;13.26;100.00;101629.75;3990868;29;20039;-76
2023/07/17 06:09:42;;;;;;;4.88;2.10;;;13.80;99.90;;;13.35;100.00;101631.47;3975845;29;20031;-76
2023/07/17 06:11:43;;;;;;;10.70;3.25;;;13.80;99.90;;;13.41;100.00;101630.06;3988192;29;20088;-76
2023/07/17 06:13:44;;;;;;;4.15;1.90;;;13.90;99.90;;;13.51;100.00;101638.72;3992004;29;20387;-76
2023/07/17 06:15:45;;;;;;;5.30;1.85;;;14.00;99.90;;;13.59;100.00;101636.16;3972831;29;20023;-76
2023/07/17 06:17:45;;;;;;;5.22;1.98;;;14.10;99.90;;;13.68;100.00;101640.53;3980030;29;20023;-76
2023/07/17 06:19:46;;;;;;;6.25;2.60;;;14.20;99.90;;;13.73;100.00;101635.59;3990779;29;20030;-76
2023/07/17 06:21:47;;;;;;;3.67;1.58;;;14.20;99.90;;;13.83;100.00;101642.47;3965188;30;20047;-76
2023/07/17 06:23:48;;;;;;;6.63;2.70;;;14.30;99.90;;;13.84;100.00;101633.53;3991274;29;21494;-76
2023/07/17 06:25:49;;;;;;;7.28;3.05;;;14.40;99.90;;;13.97;100.00;101649.03;3991171;29;20026;-76
2023/07/17 06:27:50;;;;;;;8.07;2.60;;;14.50;99.90;;;14.06;100.00;101653.41;3992377;29;20122;-76
2023/07/17 06:29:51;;;;;;;7.65;2.97;;;14.50;99.90;;;14.16;100.00;101658.59;3991122;29;20022;-76
2023/07/17 06:31:51;;;;;;;6.63;2.50;;;14.60;99.90;;;14.25;100.00;101658.47;3990695;29;20026;-76
2023/07/17 06:33:52;;;;;;;6.30;2.20;;;14.70;99.90;;;14.26;100.00;101644.25;3973298;29;20023;-76
2023/07/17 06:35:53;;;;;;;9.00;2.70;;;14.80;99.90;;;14.50;100.00;101661.31;3992547;29;20037;-76
2023/07/17 06:37:54;;;;;;;6.53;3.00;;;14.90;99.90;;;14.74;100.00;101661.41;3986169;29;20031;-76
2023/07/17 06:39:55;;;;;;;7.45;2.40;;;15.00;99.90;;;14.84;100.00;101662.13;3976501;29;20035;-76
2023/07/17 06:41:56;;;;;;;7.10;3.17;;;15.10;99.90;;;14.92;100.00;101672.75;3976853;29;20098;-77
2023/07/17 06:43:57;;;;;;;7.95;2.83;;;15.20;99.90;;;14.94;100.00;101681.38;3990134;29;20045;-76
2023/07/17 06:45:58;;;;;;;5.60;2.70;;;15.30;99.90;;;14.95;100.00;101673.28;3959226;30;20177;-76
2023/07/17 06:47:58;;;;;;;10.27;2.25;;;15.40;99.90;;;15.03;100.00;101682.25;3992934;29;20111;-76
2023/07/17 06:49:59;;;;;;;9.38;2.10;;;15.40;99.90;;;15.10;100.00;101675.28;3989277;29;20015;-76
2023/07/17 06:52:00;;;;;;;5.60;2.13;;;15.60;99.90;;;15.23;100.00;101676.47;3972629;29;20038;-76
2023/07/17 06:54:02;;;;;;;5.68;2.10;;;15.70;99.90;;;15.53;100.00;101680.38;3987645;29;20038;-76
2023/07/17 06:56:03;;;;;;;5.10;2.47;;;15.90;99.90;;;15.90;100.00;101682.53;3992444;29;20031;-76
2023/07/17 06:58:05;;;;;;;6.55;1.88;;;16.20;99.90;;;16.32;100.00;101682.28;3972886;29;20042;-76
2023/07/17 07:00:06;;;;;;;5.82;2.15;;;16.50;99.90;;;16.67;100.00;101689.03;3987755;29;20057;-76
2023/07/17 07:02:08;;;;;;;3.58;1.67;;;16.80;99.90;;;17.02;100.00;101693.88;3972330;29;20026;-76
2023/07/17 07:04:08;;;;;;;3.78;1.50;;;17.10;99.90;;;17.38;100.00;101694.97;3976398;29;20173;-76
2023/07/17 07:06:09;;;;;;;6.43;1.88;;;17.50;99.90;;;17.71;100.00;101700.13;3990523;29;20034;-76
2023/07/17 07:08:10;;;;;;;7.15;2.05;;;17.80;99.90;;;17.94;100.00;101695.59;3976974;29;20125;-76
2023/07/17 07:10:11;;;;;;;7.00;2.00;;;18.10;99.90;;;18.21;100.00;101708.34;3964967;30;20023;-76
2023/07/17 07:12:12;;;;;;;6.80;2.35;;;18.30;99.90;;;18.36;100.00;101705.69;3995193;29;20117;-76
2023/07/17 07:14:13;;;;;;;4.78;2.10;;;18.60;99.90;;;18.51;100.00;101702.03;3996184;29;20041;-76
2023/07/17 07:16:14;;;;;;;5.40;1.88;;;18.70;99.90;;;18.68;100.00;101711.53;3977760;29;20149;-76
2023/07/17 07:18:15;;;;;;;8.27;2.17;;;18.80;99.90;;;18.77;100.00;101712.25;3975961;29;20078;-76
2023/07/17 07:20:16;;;;;;;6.47;1.80;;;18.90;99.90;;;18.77;100.00;101721.09;3988094;29;20101;-76
2023/07/17 07:22:17;;;;;;;5.13;1.95;;;19.00;99.90;;;18.64;100.00;101702.22;3991118;29;20059;-76
2023/07/17 07:24:18;;;;;;;8.23;2.00;;;19.10;99.90;;;18.65;100.00;101705.72;3992517;29;20454;-76
2023/07/17 07:26:19;;;;;;;7.18;2.15;;;19.10;99.90;;;18.71;100.00;101713.00;3964303;30;20031;-76
2023/07/17 07:28:21;;;;;;;7.90;2.05;;;19.10;99.90;;;18.77;100.00;101710.41;3981100;29;20027;-76
2023/07/17 07:30:22;;;;;;;8.57;2.08;;;19.10;99.90;;;18.87;100.00;101703.94;3988264;29;20041;-76
2023/07/17 07:32:23;;;;;;;5.57;2.03;;;19.10;99.90;;;18.92;100.00;101714.91;3961252;30;20031;-76
2023/07/17 07:34:24;;;;;;;5.43;1.90;;;19.10;99.90;;;18.95;100.00;101719.88;3978780;29;20514;-76
2023/07/17 07:36:28;;;;;;;5.35;1.92;;;19.10;99.90;;;18.91;100.00;101723.94;3986946;29;20031;-76
2023/07/17 07:38:29;;;;;;;8.77;2.25;;;19.10;99.90;;;18.84;100.00;101717.69;3977951;29;20047;-76
2023/07/17 07:40:30;;;;;;;6.47;2.05;;;19.10;99.90;;;18.73;100.00;101718.97;3988871;29;20586;-76
2023/07/17 07:42:31;;;;;;;6.32;1.85;;;19.00;99.90;;;18.47;100.00;101705.22;3971983;29;20035;-76
2023/07/17 07:44:31;;;;;;;7.53;2.05;;;19.00;99.90;;;18.45;100.00;101725.97;3995790;29;20026;-76
2023/07/17 07:46:32;;;;;;;5.60;2.45;;;18.90;99.90;;;18.36;100.00;101730.56;3995566;29;20041;-76
2023/07/17 07:48:34;;;;;;;5.13;1.90;;;18.90;99.90;;;18.38;100.00;101720.50;3964357;30;20114;-76
2023/07/17 07:50:35;;;;;;;8.10;2.45;;;18.90;99.90;;;18.42;100.00;101727.16;3993949;29;20027;-77
2023/07/17 07:52:36;;;;;;;4.68;1.40;;;18.90;99.90;;;18.36;100.00;101716.38;3972669;29;20031;-76
2023/07/17 07:54:37;;;;;;;4.43;1.60;;;18.90;99.90;;;18.24;100.00;101730.19;3987160;29;20091;-76
2023/07/17 07:56:38;;;;;;;9.85;2.05;;;18.80;99.90;;;17.99;100.00;101725.22;3959520;30;20032;-76
2023/07/17 07:58:39;;;;;;;7.57;1.73;;;18.70;99.90;;;17.88;100.00;101712.31;3987294;29;20510;-76
2023/07/17 08:00:40;;;;;;;8.60;1.80;;;18.60;99.90;;;18.13;100.00;101732.44;3979250;29;20027;-76
2023/07/17 08:02:41;;;;;;;10.00;2.10;;;18.60;99.90;;;18.30;100.00;101736.63;3990952;29;20042;-76
2023/07/17 08:04:41;;;;;;;3.22;1.75;;;18.70;99.90;;;18.48;100.00;101746.97;3992893;29;20031;-76
2023/07/17 08:06:42;;;;;;;7.85;1.83;;;18.80;99.90;;;18.40;100.00;101733.69;3989369;29;20129;-76
2023/07/17 08:08:43;;;;;;;5.68;1.33;;;18.80;99.90;;;18.32;100.00;101742.63;3976722;29;20027;-76
2023/07/17 08:10:44;;;;;;;9.32;2.38;;;18.80;99.90;;;18.29;100.00;101731.47;3982959;29;20061;-76
2023/07/17 08:12:45;;;;;;;5.22;1.50;;;18.80;99.90;;;18.65;100.00;101746.63;3993263;29;20026;-76
2023/07/17 08:14:46;;;;;;;6.68;1.48;;;18.90;99.90;;;18.96;100.00;101746.44;3987511;29;20037;-76
2023/07/17 08:16:48;;;;;;;7.18;1.27;;;19.10;99.90;;;19.19;100.00;101752.50;3978888;29;20027;-76
2023/07/17 08:18:49;;;;;;;6.22;1.92;;;19.30;99.90;;;19.30;100.00;101749.31;3975832;29;20101;-76